Time;durP1;ratioP1;P1;durP2;ratioP2;P2;SDS_P1;SDS_P2;PMS_P1;PMS_P2;Temp;Humidity;BMP_temperature;BMP_pressure;BME280_temperature;BME280_humidity;BME280_pressure;Samples;Min_cycle;Max_cycle;Signal;HPM_P1;HPM_P2
2023/10/23 00:01:36;;;;;;;5.10;2.92;;;13.50;66.70;15.30;101080.00;;;;5044496;28;20331;-76
2023/10/23 00:04:05;;;;;;;3.85;3.15;;;13.50;66.80;15.30;101079.00;;;;5036759;28;20646;-76
2023/10/23 00:06:32;;;;;;;3.38;2.70;;;13.50;66.70;15.40;101079.00;;;;5040550;28;20222;-76
2023/10/23 00:09:00;;;;;;;4.85;3.10;;;13.50;66.60;15.40;101075.00;;;;5038652;28;20202;-77
2023/10/23 00:11:30;;;;;;;3.97;3.30;;;13.60;66.70;15.40;101082.00;;;;5044282;28;20204;-76
2023/10/23 00:13:57;;;;;;;7.90;3.30;;;13.60;66.60;15.50;101086.00;;;;5046032;28;20200;-76
2023/10/23 00:16:24;;;;;;;6.10;3.03;;;13.60;66.70;15.50;101079.00;;;;5038320;28;20578;-76
2023/10/23 00:18:52;;;;;;;6.28;3.08;;;13.60;66.70;15.50;101080.00;;;;5037729;28;20232;-76
2023/10/23 00:21:20;;;;;;;3.67;3.33;;;13.70;66.70;15.50;101079.00;;;;5032856;28;20208;-76
2023/10/23 00:23:47;;;;;;;4.78;3.55;;;13.70;66.60;15.50;101074.00;;;;5040500;28;20212;-76
2023/10/23 00:26:14;;;;;;;8.18;3.50;;;13.70;66.60;15.50;101083.00;;;;5039602;28;20200;-76
2023/10/23 00:28:41;;;;;;;7.05;3.80;;;13.70;66.50;15.50;101079.00;;;;5040600;28;20204;-76
2023/10/23 00:31:08;;;;;;;4.32;3.25;;;13.70;66.40;15.50;101083.00;;;;5041282;28;20210;-76
2023/10/23 00:33:36;;;;;;;4.53;2.95;;;13.70;66.40;15.50;101083.00;;;;5043863;28;20207;-76
2023/10/23 00:36:04;;;;;;;4.60;3.45;;;13.70;66.30;15.50;101085.00;;;;5038805;28;20203;-76
2023/10/23 00:38:32;;;;;;;4.53;3.45;;;13.70;66.20;15.50;101089.00;;;;5038263;28;20210;-76
2023/10/23 00:41:00;;;;;;;3.25;2.95;;;13.70;66.20;15.50;101090.00;;;;5031359;28;20220;-76
2023/10/23 00:43:28;;;;;;;5.90;4.05;;;13.70;66.20;15.50;101093.00;;;;5044705;28;20199;-76
2023/10/23 00:45:58;;;;;;;6.00;3.75;;;13.70;66.20;15.50;101094.00;;;;5042328;28;20243;-76
2023/10/23 00:48:27;;;;;;;6.70;3.80;;;13.70;66.20;15.50;101099.00;;;;5034457;28;20197;-76
2023/10/23 00:51:02;;;;;;;5.15;3.35;;;13.70;66.30;15.40;101090.00;;;;5041474;28;20207;-76
2023/10/23 00:53:36;;;;;;;4.95;3.45;;;13.70;66.30;15.40;101083.00;;;;5038328;28;20544;-76
2023/10/23 00:56:05;;;;;;;4.03;3.50;;;13.70;66.30;15.50;101091.00;;;;5031697;28;20689;-76
2023/10/23 00:58:33;;;;;;;5.40;3.60;;;13.70;66.40;15.50;101088.00;;;;5039945;28;20206;-77
2023/10/23 01:01:03;;;;;;;5.30;3.53;;;13.70;66.50;15.50;101083.00;;;;5039133;28;20220;-76
2023/10/23 01:03:30;;;;;;;4.43;3.60;;;13.70;66.50;15.50;101088.00;;;;5031658;28;21228;-76
2023/10/23 01:05:58;;;;;;;3.47;3.17;;;13.70;66.50;15.50;101082.00;;;;5032928;28;20851;-76
2023/10/23 01:08:26;;;;;;;4.63;3.42;;;13.70;66.60;15.50;101084.00;;;;5043357;28;20196;-77
2023/10/23 01:10:55;;;;;;;4.22;3.65;;;13.70;66.70;15.60;101078.00;;;;5040852;28;20201;-77
2023/10/23 01:13:22;;;;;;;4.72;3.20;;;13.70;66.70;15.60;101091.00;;;;5045004;28;20205;-76
2023/10/23 01:15:50;;;;;;;4.50;3.70;;;13.70;66.70;15.60;101083.00;;;;5039198;28;20203;-76
2023/10/23 01:18:17;;;;;;;5.47;3.63;;;13.80;66.80;15.60;101090.00;;;;5045134;28;20310;-76
2023/10/23 01:20:45;;;;;;;5.63;3.53;;;13.80;66.80;15.60;101088.00;;;;5031963;28;20223;-76
2023/10/23 01:23:13;;;;;;;5.07;3.95;;;13.80;66.90;15.70;101089.00;;;;5045416;28;20211;-76
2023/10/23 01:25:41;;;;;;;4.18;3.78;;;13.80;66.90;15.60;101096.00;;;;5038894;28;20203;-76
2023/10/23 01:28:08;;;;;;;4.07;3.67;;;13.80;66.90;15.70;101103.00;;;;5035412;28;20207;-76
2023/10/23 01:30:35;;;;;;;4.88;4.05;;;13.80;66.90;15.70;101110.00;;;;5033236;28;20203;-76
2023/10/23 01:33:02;;;;;;;4.28;3.88;;;13.90;67.00;15.70;101110.00;;;;5041423;28;20200;-76
2023/10/23 01:35:29;;;;;;;5.30;4.72;;;13.90;67.00;15.80;101117.00;;;;5035144;28;20200;-76
2023/10/23 01:37:56;;;;;;;4.03;3.55;;;13.90;67.10;15.70;101117.00;;;;5037415;28;20207;-77
2023/10/23 01:40:23;;;;;;;8.93;4.50;;;13.90;67.10;15.80;101119.00;;;;5036418;28;20314;-76
2023/10/23 01:42:52;;;;;;;5.63;4.18;;;13.90;67.10;15.80;101117.00;;;;5032251;28;20199;-76
2023/10/23 01:45:19;;;;;;;5.93;4.28;;;13.90;67.10;15.80;101117.00;;;;5041745;28;20235;-76
2023/10/23 01:47:47;;;;;;;5.00;4.03;;;14.00;67.10;15.80;101113.00;;;;5039549;28;20277;-76
2023/10/23 01:50:14;;;;;;;7.35;4.97;;;14.00;67.10;15.90;101121.00;;;;5034048;28;20200;-76
2023/10/23 01:52:41;;;;;;;5.57;4.63;;;14.00;67.20;15.90;101122.00;;;;5039032;28;20678;-76
2023/10/23 01:55:09;;;;;;;5.13;4.30;;;14.00;67.20;15.90;101117.00;;;;5045289;28;20997;-76
2023/10/23 01:57:36;;;;;;;6.30;4.57;;;14.10;67.30;15.90;101116.00;;;;5032977;28;20250;-76
2023/10/23 02:00:05;;;;;;;5.93;4.43;;;14.10;67.30;16.00;101111.00;;;;5044381;28;20222;-76
2023/10/23 02:02:33;;;;;;;4.80;4.38;;;14.10;67.30;16.00;101107.00;;;;5042185;28;20876;-76
2023/10/23 02:05:00;;;;;;;5.38;4.25;;;14.20;67.40;16.00;101100.00;;;;5037082;28;20192;-76
2023/10/23 02:07:27;;;;;;;6.03;4.57;;;14.20;67.40;16.00;101105.00;;;;5040292;28;20211;-76
2023/10/23 02:09:56;;;;;;;5.15;4.45;;;14.20;67.40;16.10;101107.00;;;;5038283;28;20207;-76
2023/10/23 02:12:23;;;;;;;7.75;5.10;;;14.30;67.50;16.10;101113.00;;;;5040112;28;20203;-76
2023/10/23 02:14:52;;;;;;;5.43;4.78;;;14.30;67.50;16.10;101106.00;;;;5042511;28;20199;-76
2023/10/23 02:17:21;;;;;;;7.00;4.80;;;14.30;67.60;16.10;101110.00;;;;5042372;28;20715;-76
2023/10/23 02:19:49;;;;;;;5.43;4.70;;;14.30;67.70;16.20;101108.00;;;;5045339;28;20219;-77
2023/10/23 02:22:16;;;;;;;5.00;4.50;;;14.30;67.70;16.20;101115.00;;;;5040600;28;20206;-76
2023/10/23 02:24:43;;;;;;;6.15;5.28;;;14.40;67.80;16.20;101109.00;;;;5041511;28;20205;-76
2023/10/23 02:27:10;;;;;;;8.43;5.53;;;14.40;67.80;16.30;101120.00;;;;5045089;28;20222;-77
2023/10/23 02:29:40;;;;;;;7.50;4.60;;;14.40;67.80;16.30;101120.00;;;;5041373;28;20287;-77
2023/10/23 02:32:07;;;;;;;9.43;5.20;;;14.50;67.90;16.30;101124.00;;;;5047090;28;20214;-77
2023/10/23 02:34:37;;;;;;;5.20;4.65;;;14.50;67.90;16.30;101124.00;;;;5047807;28;20253;-76
2023/10/23 02:37:05;;;;;;;5.63;4.78;;;14.60;68.10;16.40;101125.00;;;;5042543;28;20192;-76
2023/10/23 02:39:32;;;;;;;5.45;4.90;;;14.60;68.20;16.40;101125.00;;;;5036582;28;20199;-77
2023/10/23 02:41:59;;;;;;;7.00;5.20;;;14.60;68.20;16.40;101125.00;;;;5050889;28;20873;-76
2023/10/23 02:44:26;;;;;;;6.07;4.93;;;14.70;68.20;16.50;101117.00;;;;5044043;28;20569;-76
2023/10/23 02:46:53;;;;;;;6.55;4.63;;;14.70;68.20;16.50;101123.00;;;;5035443;28;20589;-76
2023/10/23 02:49:20;;;;;;;5.10;4.60;;;14.70;68.20;16.50;101128.00;;;;5036658;28;20207;-76
2023/10/23 02:51:49;;;;;;;5.30;4.40;;;14.80;68.20;16.50;101133.00;;;;5033257;28;21481;-76
2023/10/23 02:54:16;;;;;;;5.25;4.60;;;14.80;68.20;16.60;101128.00;;;;5040942;28;20200;-77
2023/10/23 02:56:43;;;;;;;4.70;4.28;;;14.80;68.10;16.60;101132.00;;;;5041405;28;20203;-77
2023/10/23 02:59:10;;;;;;;5.40;4.55;;;14.90;68.20;16.60;101138.00;;;;5046251;28;20195;-77
2023/10/23 03:01:38;;;;;;;5.82;4.93;;;14.90;68.20;16.70;101142.00;;;;5035675;28;20716;-77
2023/10/23 03:04:05;;;;;;;5.63;4.47;;;14.90;68.10;16.70;101145.00;;;;5041594;28;20650;-77
2023/10/23 03:06:32;;;;;;;5.30;4.80;;;14.90;68.00;16.70;101136.00;;;;5038633;28;20200;-77
2023/10/23 03:09:01;;;;;;;5.70;5.13;;;14.90;68.00;16.70;101133.00;;;;5045147;28;20645;-77
2023/10/23 03:11:28;;;;;;;4.60;4.20;;;14.90;68.00;16.70;101135.00;;;;5042871;28;20200;-77
2023/10/23 03:13:55;;;;;;;7.88;4.85;;;15.00;68.00;16.80;101132.00;;;;5045617;28;20211;-77
2023/10/23 03:16:24;;;;;;;4.80;4.28;;;15.00;67.90;16.80;101129.00;;;;5050574;28;20215;-77
2023/10/23 03:18:51;;;;;;;6.78;4.10;;;14.90;67.90;16.80;101127.00;;;;5046109;28;20231;-77
2023/10/23 03:21:18;;;;;;;5.68;4.97;;;15.00;67.90;16.80;101133.00;;;;5040785;28;20739;-77
2023/10/23 03:23:45;;;;;;;5.32;4.38;;;15.00;67.90;16.80;101118.00;;;;5038799;28;20204;-77
2023/10/23 03:26:14;;;;;;;14.70;4.30;;;15.00;67.80;16.80;101123.00;;;;5046426;28;20199;-77
2023/10/23 03:28:41;;;;;;;5.57;5.07;;;15.00;67.80;16.80;101121.00;;;;5045539;28;20199;-76
2023/10/23 03:31:08;;;;;;;4.97;4.32;;;15.00;67.80;16.80;101119.00;;;;5044786;28;20199;-77
2023/10/23 03:33:36;;;;;;;8.90;5.50;;;15.00;67.80;16.80;101128.00;;;;5047978;28;20560;-77
2023/10/23 03:36:03;;;;;;;7.25;4.70;;;15.00;67.70;16.70;101129.00;;;;5044384;28;20725;-77
2023/10/23 03:38:30;;;;;;;5.35;4.68;;;15.00;67.70;16.70;101127.00;;;;5037767;28;20188;-77
2023/10/23 03:40:58;;;;;;;5.53;4.72;;;15.00;67.70;16.70;101135.00;;;;5044288;28;20289;-77
2023/10/23 03:43:27;;;;;;;6.45;5.13;;;15.00;67.60;16.70;101131.00;;;;5046466;28;20245;-76
2023/10/23 03:45:54;;;;;;;6.72;4.88;;;15.00;67.60;16.70;101138.00;;;;5036853;28;20220;-76
2023/10/23 03:48:21;;;;;;;6.10;5.20;;;15.00;67.70;16.70;101142.00;;;;5036737;28;20211;-76
2023/10/23 03:50:48;;;;;;;6.35;4.53;;;15.00;67.70;16.70;101144.00;;;;5044394;28;20274;-77
2023/10/23 03:53:15;;;;;;;6.15;4.72;;;14.90;67.70;16.70;101144.00;;;;5042301;28;20191;-77
2023/10/23 03:55:42;;;;;;;5.90;4.50;;;14.90;68.40;16.70;101147.00;;;;5042123;28;20208;-77
2023/10/23 03:58:09;;;;;;;5.00;3.92;;;14.90;67.80;16.70;101146.00;;;;5038657;28;20317;-77
2023/10/23 04:00:38;;;;;;;5.10;4.25;;;14.90;67.90;16.70;101156.00;;;;5043106;28;20584;-77
2023/10/23 04:03:05;;;;;;;5.85;4.63;;;15.00;68.00;16.80;101154.00;;;;5038232;28;20201;-77
2023/10/23 04:05:32;;;;;;;6.60;4.68;;;14.90;68.00;16.80;101156.00;;;;5042469;28;20191;-77
2023/10/23 04:07:59;;;;;;;4.70;4.28;;;14.90;68.00;16.80;101151.00;;;;5045631;28;20208;-77
2023/10/23 04:10:26;;;;;;;5.00;4.50;;;15.00;68.20;16.80;101147.00;;;;5039633;28;20207;-77
2023/10/23 04:12:53;;;;;;;5.50;4.65;;;15.00;68.20;16.80;101155.00;;;;5039914;28;20665;-77
2023/10/23 04:15:20;;;;;;;5.28;4.75;;;15.00;68.20;16.90;101153.00;;;;5040017;28;20200;-76
2023/10/23 04:17:48;;;;;;;6.28;5.45;;;15.10;68.30;16.90;101146.00;;;;5041561;28;20239;-77
2023/10/23 04:20:15;;;;;;;6.90;5.45;;;15.10;68.40;16.90;101137.00;;;;5043824;28;20220;-77
2023/10/23 04:22:43;;;;;;;8.57;5.50;;;15.10;68.50;16.90;101144.00;;;;5040684;28;20704;-76
2023/10/23 04:25:10;;;;;;;10.38;6.00;;;15.10;68.50;16.90;101139.00;;;;5044730;28;21953;-76
2023/10/23 04:27:37;;;;;;;8.15;4.82;;;15.10;68.50;17.00;101143.00;;;;5037492;28;20569;-77
2023/10/23 04:30:06;;;;;;;6.07;5.45;;;15.20;68.60;17.00;101141.00;;;;5045054;28;20200;-77
2023/10/23 04:32:33;;;;;;;7.45;5.57;;;15.20;68.60;17.00;101141.00;;;;5044118;28;20196;-77
2023/10/23 04:35:01;;;;;;;6.10;5.38;;;15.20;68.60;17.00;101151.00;;;;5038896;28;20203;-77
2023/10/23 04:37:28;;;;;;;6.00;5.32;;;15.20;68.70;17.10;101158.00;;;;5043715;28;20199;-77
2023/10/23 04:39:56;;;;;;;6.13;5.03;;;15.20;68.60;17.10;101149.00;;;;5044782;28;20196;-77
2023/10/23 04:42:22;;;;;;;7.45;6.18;;;15.30;68.60;17.10;101151.00;;;;5033106;28;20224;-77
2023/10/23 04:44:49;;;;;;;6.63;5.70;;;15.30;68.60;17.10;101152.00;;;;5043432;28;20569;-77
2023/10/23 04:47:16;;;;;;;6.65;5.80;;;15.30;68.60;17.10;101153.00;;;;5040246;28;20195;-77
2023/10/23 04:49:43;;;;;;;8.50;6.40;;;15.40;68.70;17.10;101149.00;;;;5044663;28;20203;-77
2023/10/23 04:52:12;;;;;;;8.13;5.75;;;15.40;68.60;17.10;101152.00;;;;5035622;28;20208;-77
2023/10/23 04:54:38;;;;;;;8.23;5.88;;;15.40;68.70;17.20;101161.00;;;;5043024;28;20208;-76
2023/10/23 04:57:06;;;;;;;7.15;6.03;;;15.40;68.60;17.20;101155.00;;;;5045032;28;20561;-76
2023/10/23 04:59:35;;;;;;;7.93;5.93;;;15.40;68.60;17.20;101164.00;;;;5038904;28;20193;-77
2023/10/23 05:02:02;;;;;;;8.82;6.03;;;15.40;68.60;17.20;101164.00;;;;5040070;28;20277;-77
2023/10/23 05:04:30;;;;;;;9.45;6.25;;;15.40;68.60;17.20;101166.00;;;;5035560;28;20200;-77
2023/10/23 05:06:57;;;;;;;11.13;6.70;;;15.40;68.60;17.20;101170.00;;;;5033148;28;20212;-77
2023/10/23 05:09:26;;;;;;;10.98;6.93;;;15.40;68.60;17.20;101164.00;;;;5036764;28;20195;-76
2023/10/23 05:11:53;;;;;;;9.48;6.88;;;15.50;68.60;17.20;101159.00;;;;5038828;28;20650;-76
2023/10/23 05:14:20;;;;;;;8.77;7.03;;;15.50;68.60;17.20;101164.00;;;;5046035;28;20199;-76
2023/10/23 05:16:47;;;;;;;10.20;7.85;;;15.50;68.60;17.30;101170.00;;;;5041846;28;20199;-76
2023/10/23 05:19:13;;;;;;;10.05;6.90;;;15.50;68.60;17.30;101168.00;;;;5040695;28;20219;-77
2023/10/23 05:21:40;;;;;;;9.90;6.85;;;15.50;68.60;17.20;101167.00;;;;5038271;28;20715;-77
2023/10/23 05:24:08;;;;;;;10.90;7.45;;;15.50;68.50;17.20;101167.00;;;;5042155;28;20568;-77
2023/10/23 05:26:38;;;;;;;12.00;7.47;;;15.50;68.50;17.20;101167.00;;;;5038578;28;20211;-77
2023/10/23 05:29:04;;;;;;;8.45;6.93;;;15.50;68.50;17.30;101168.00;;;;5047896;28;20199;-77
2023/10/23 05:31:31;;;;;;;12.77;7.20;;;15.50;68.40;17.30;101168.00;;;;5042267;28;20199;-77
2023/10/23 05:33:58;;;;;;;11.38;7.75;;;15.50;68.70;17.30;101169.00;;;;5042513;28;20211;-77
2023/10/23 05:36:25;;;;;;;8.23;6.97;;;15.50;68.40;17.30;101167.00;;;;5038328;28;20203;-76
2023/10/23 05:38:52;;;;;;;11.30;7.38;;;15.50;68.50;17.30;101172.00;;;;5046602;28;20207;-76
2023/10/23 05:41:19;;;;;;;9.63;7.05;;;15.50;68.40;17.30;101163.00;;;;5041500;28;20220;-76
2023/10/23 05:43:48;;;;;;;10.65;6.03;;;15.50;68.40;17.30;101158.00;;;;5042299;28;20199;-76
2023/10/23 05:46:15;;;;;;;10.65;6.82;;;15.50;68.50;17.30;101160.00;;;;5042913;28;20211;-76
2023/10/23 05:48:42;;;;;;;11.23;7.00;;;15.50;68.50;17.30;101166.00;;;;5039184;28;20286;-77
2023/10/23 05:51:09;;;;;;;9.10;7.32;;;15.50;68.50;17.30;101163.00;;;;5033669;28;20196;-76
2023/10/23 05:53:37;;;;;;;9.65;7.50;;;15.50;68.40;17.30;101169.00;;;;5046327;28;20199;-76
2023/10/23 05:56:05;;;;;;;12.20;8.30;;;15.50;68.50;17.30;101165.00;;;;5034267;28;20207;-76
2023/10/23 05:58:33;;;;;;;12.10;7.03;;;15.50;68.50;17.30;101163.00;;;;5035892;28;20197;-76
2023/10/23 06:01:06;;;;;;;9.98;7.03;;;15.50;68.50;17.20;101161.00;;;;5039816;28;20216;-76
2023/10/23 06:03:33;;;;;;;12.35;6.35;;;15.50;68.60;17.30;101156.00;;;;5027686;28;20212;-76
2023/10/23 06:06:01;;;;;;;9.55;6.53;;;15.50;68.50;17.30;101163.00;;;;5035892;28;20200;-77
2023/10/23 06:08:30;;;;;;;7.80;6.22;;;15.50;68.40;17.30;101157.00;;;;5036439;28;20267;-76
2023/10/23 06:10:57;;;;;;;7.90;6.25;;;15.50;68.40;17.30;101164.00;;;;5041484;28;20196;-76
2023/10/23 06:13:24;;;;;;;10.63;7.63;;;15.50;68.40;17.30;101164.00;;;;5047413;28;20200;-77
2023/10/23 06:15:51;;;;;;;10.27;6.60;;;15.50;68.40;17.30;101154.00;;;;5033899;28;20195;-76
2023/10/23 06:18:19;;;;;;;14.77;7.05;;;15.50;68.30;17.30;101160.00;;;;5036705;28;20231;-77
2023/10/23 06:20:46;;;;;;;10.52;6.22;;;15.50;68.30;17.30;101163.00;;;;5029164;28;20184;-76
2023/10/23 06:23:14;;;;;;;12.60;7.00;;;15.50;68.40;17.30;101157.00;;;;5043266;28;20192;-76
2023/10/23 06:25:40;;;;;;;10.15;6.10;;;15.50;68.40;17.30;101158.00;;;;5042663;28;20194;-77
2023/10/23 06:28:08;;;;;;;13.48;6.65;;;15.50;68.40;17.20;101159.00;;;;5037123;28;20189;-76
2023/10/23 06:30:36;;;;;;;22.27;7.05;;;15.50;68.40;17.20;101155.00;;;;5036067;28;20206;-76
2023/10/23 06:33:04;;;;;;;10.15;6.47;;;15.50;68.40;17.20;101166.00;;;;5035460;28;20200;-76
2023/10/23 06:35:32;;;;;;;16.83;6.18;;;15.40;68.30;17.20;101164.00;;;;5041512;28;20726;-76
2023/10/23 06:37:59;;;;;;;14.57;7.03;;;15.40;68.40;17.20;101165.00;;;;5039368;28;20195;-76
2023/10/23 06:40:26;;;;;;;15.55;5.97;;;15.40;68.40;17.20;101164.00;;;;5041527;28;20208;-76
2023/10/23 06:42:53;;;;;;;13.95;7.03;;;15.40;68.50;17.20;101160.00;;;;5045412;28;20234;-76
2023/10/23 06:45:20;;;;;;;13.45;6.18;;;15.40;68.50;17.20;101162.00;;;;5038273;28;20681;-76
2023/10/23 06:47:49;;;;;;;10.57;6.50;;;15.40;68.50;17.20;101168.00;;;;5035852;28;20195;-76
2023/10/23 06:50:16;;;;;;;18.50;5.78;;;15.40;68.50;17.20;101171.00;;;;5040890;28;20196;-76
2023/10/23 06:52:44;;;;;;;9.18;6.18;;;15.40;68.50;17.20;101171.00;;;;5036221;28;20211;-76
2023/10/23 06:55:12;;;;;;;11.57;6.03;;;15.40;68.50;17.20;101171.00;;;;5034365;28;20212;-77
2023/10/23 06:57:39;;;;;;;13.48;6.18;;;15.40;68.50;17.20;101169.00;;;;5035127;28;20200;-76
2023/10/23 07:00:07;;;;;;;12.52;6.47;;;15.40;68.50;17.20;101169.00;;;;5046404;28;20257;-77
2023/10/23 07:02:34;;;;;;;7.43;6.13;;;15.40;68.50;17.20;101168.00;;;;5033753;28;20626;-77
2023/10/23 07:05:02;;;;;;;12.43;6.18;;;15.40;68.50;17.20;101167.00;;;;5037656;28;20196;-77
2023/10/23 07:07:29;;;;;;;19.25;6.53;;;15.40;68.50;17.20;101174.00;;;;5040888;28;20678;-76
2023/10/23 07:09:59;;;;;;;12.30;5.90;;;15.40;68.50;17.20;101179.00;;;;5034505;28;20216;-76
2023/10/23 07:12:27;;;;;;;15.35;6.30;;;15.40;68.50;17.20;101180.00;;;;5039965;28;20196;-76
2023/10/23 07:14:54;;;;;;;20.52;6.28;;;15.40;68.50;17.20;101187.00;;;;5032518;28;20204;-76
2023/10/23 07:17:21;;;;;;;20.15;5.90;;;15.40;68.50;17.20;101182.00;;;;5048055;28;20397;-76
2023/10/23 07:19:48;;;;;;;12.07;6.07;;;15.40;68.50;17.20;101180.00;;;;5050179;28;20670;-76
2023/10/23 07:22:15;;;;;;;13.75;6.47;;;15.40;68.50;17.10;101173.00;;;;5039371;28;20220;-77
2023/10/23 07:24:41;;;;;;;14.85;5.80;;;15.40;68.50;17.20;101166.00;;;;5040663;28;20569;-76
2023/10/23 07:27:14;;;;;;;19.92;5.75;;;15.40;68.50;17.20;101181.00;;;;5043746;28;21003;-76
2023/10/23 07:29:41;;;;;;;14.40;6.03;;;15.40;68.60;17.20;101169.00;;;;5048890;28;20207;-76
2023/10/23 07:32:08;;;;;;;15.82;5.25;;;15.40;68.70;17.20;101171.00;;;;5042628;28;20215;-76
2023/10/23 07:34:35;;;;;;;14.60;5.88;;;15.30;68.60;17.20;101173.00;;;;5034770;28;20196;-77
2023/10/23 07:37:03;;;;;;;15.63;5.32;;;15.30;68.60;17.20;101177.00;;;;5037414;28;20207;-77
2023/10/23 07:39:30;;;;;;;12.23;5.95;;;15.40;68.60;17.10;101171.00;;;;5037976;28;20291;-77
2023/10/23 07:41:57;;;;;;;16.40;6.30;;;15.40;68.50;17.10;101169.00;;;;5037439;28;20228;-76
2023/10/23 07:44:28;;;;;;;10.52;4.78;;;15.40;68.50;17.10;101172.00;;;;5042011;28;20290;-76
2023/10/23 07:46:55;;;;;;;8.02;4.70;;;15.30;68.50;17.20;101176.00;;;;5040199;28;20231;-76
2023/10/23 07:49:24;;;;;;;15.23;5.25;;;15.40;68.50;17.10;101173.00;;;;5049437;28;20200;-77
2023/10/23 07:51:50;;;;;;;31.67;5.68;;;15.30;68.50;17.10;101172.00;;;;5037155;28;20197;-76
2023/10/23 07:54:18;;;;;;;9.73;5.40;;;15.30;68.50;17.20;101174.00;;;;5048418;28;20899;-77
2023/10/23 07:56:45;;;;;;;12.23;5.60;;;15.30;68.60;17.20;101186.00;;;;5044274;28;20203;-77
2023/10/23 07:59:13;;;;;;;10.48;6.07;;;15.30;68.60;17.20;101181.00;;;;5041981;28;20258;-76
2023/10/23 08:01:41;;;;;;;9.48;5.43;;;15.30;68.60;17.20;101178.00;;;;5038825;28;20222;-76
2023/10/23 08:04:09;;;;;;;6.28;5.15;;;15.30;68.60;17.20;101178.00;;;;5044169;28;20214;-76
2023/10/23 08:06:36;;;;;;;9.27;5.45;;;15.40;68.70;17.20;101173.00;;;;5032635;28;20204;-76
2023/10/23 08:09:04;;;;;;;8.85;5.63;;;15.40;68.70;17.20;101179.00;;;;5040345;28;20760;-76
2023/10/23 08:11:31;;;;;;;17.40;5.43;;;15.40;68.80;17.20;101171.00;;;;5045538;28;20189;-77
2023/10/23 08:13:59;;;;;;;9.98;5.13;;;15.40;68.80;17.20;101168.00;;;;5040041;28;20661;-76
2023/10/23 08:16:26;;;;;;;8.00;5.80;;;15.40;68.80;17.20;101169.00;;;;5037159;28;20198;-76
2023/10/23 08:18:57;;;;;;;6.97;5.55;;;15.40;68.90;17.30;101167.00;;;;5045548;28;20227;-76
2023/10/23 08:21:26;;;;;;;11.52;6.60;;;15.40;68.90;17.30;101167.00;;;;5035123;28;20193;-77
2023/10/23 08:23:54;;;;;;;9.75;5.65;;;15.40;68.90;17.30;101155.00;;;;5048171;28;20203;-77
2023/10/23 08:26:21;;;;;;;8.18;5.35;;;15.50;68.90;17.30;101162.00;;;;5041527;28;20194;-76
2023/10/23 08:28:49;;;;;;;8.32;5.68;;;15.40;68.80;17.30;101163.00;;;;5034234;28;20192;-77
2023/10/23 08:31:16;;;;;;;11.80;5.95;;;15.50;68.90;17.30;101157.00;;;;5035488;28;20195;-76
2023/10/23 08:33:43;;;;;;;13.02;5.82;;;15.50;68.90;17.30;101158.00;;;;5033843;28;20706;-77
2023/10/23 08:36:12;;;;;;;9.45;5.78;;;15.50;68.80;17.30;101151.00;;;;5047614;28;20219;-76
2023/10/23 08:38:39;;;;;;;6.93;5.28;;;15.50;68.80;17.40;101153.00;;;;5031642;28;20822;-77
2023/10/23 08:41:10;;;;;;;7.82;5.95;;;15.50;68.90;17.40;101154.00;;;;5040127;28;20847;-77
2023/10/23 08:43:37;;;;;;;8.38;6.28;;;15.50;68.90;17.40;101149.00;;;;5040072;28;20218;-77
2023/10/23 08:46:05;;;;;;;9.40;7.20;;;15.60;69.00;17.40;101154.00;;;;5042063;28;20697;-77
2023/10/23 08:48:32;;;;;;;8.75;6.75;;;15.60;69.00;17.50;101154.00;;;;5046469;28;20486;-77
2023/10/23 08:50:59;;;;;;;8.70;6.93;;;15.60;69.00;17.50;101158.00;;;;5036030;28;20199;-77
2023/10/23 08:53:34;;;;;;;9.75;7.55;;;15.70;69.10;17.40;101162.00;;;;5037837;28;20206;-77
2023/10/23 08:56:05;;;;;;;9.63;7.82;;;15.60;69.10;17.50;101167.00;;;;5037085;28;20462;-77
2023/10/23 08:58:35;;;;;;;11.35;7.95;;;15.70;69.10;17.50;101162.00;;;;5034225;28;20192;-77
2023/10/23 09:01:03;;;;;;;8.38;7.03;;;15.70;69.00;17.50;101159.00;;;;5035124;28;20195;-77
2023/10/23 09:03:33;;;;;;;9.35;7.15;;;15.80;69.00;17.50;101160.00;;;;5047871;28;20227;-77
2023/10/23 09:06:01;;;;;;;9.82;7.68;;;15.70;69.00;17.60;101151.00;;;;5038070;28;20198;-77
2023/10/23 09:08:31;;;;;;;9.48;7.32;;;15.70;69.00;17.60;101150.00;;;;5042685;28;20199;-77
2023/10/23 09:11:03;;;;;;;9.57;7.07;;;15.80;69.00;17.60;101152.00;;;;5037055;28;20291;-77
2023/10/23 09:13:36;;;;;;;9.20;7.18;;;15.80;69.00;17.60;101155.00;;;;5048788;28;20571;-76
2023/10/23 09:16:05;;;;;;;9.65;8.00;;;15.80;69.10;17.70;101153.00;;;;5036835;28;20895;-77
2023/10/23 09:18:32;;;;;;;11.18;8.18;;;15.90;69.10;17.70;101157.00;;;;5036584;28;20255;-77
2023/10/23 09:21:00;;;;;;;10.52;8.40;;;15.90;69.10;17.70;101161.00;;;;5041037;28;20226;-77
2023/10/23 09:23:28;;;;;;;8.35;7.05;;;15.90;69.10;17.80;101163.00;;;;5039660;28;20223;-77
2023/10/23 09:26:00;;;;;;;11.27;8.30;;;15.90;69.00;17.80;101157.00;;;;5034460;28;20295;-77
2023/10/23 09:28:28;;;;;;;11.63;8.27;;;16.00;69.10;17.80;101169.00;;;;5034574;28;21087;-76
2023/10/23 09:30:55;;;;;;;11.95;8.73;;;16.00;69.10;17.80;101168.00;;;;5034282;28;20200;-76
2023/10/23 09:33:23;;;;;;;13.00;8.88;;;16.00;69.10;17.90;101165.00;;;;5040535;28;20199;-77
2023/10/23 09:35:51;;;;;;;14.60;10.45;;;16.00;69.10;17.90;101168.00;;;;5033015;28;20258;-77
2023/10/23 09:38:18;;;;;;;13.23;8.60;;;16.10;69.00;17.90;101165.00;;;;5048435;28;20188;-77
2023/10/23 09:40:47;;;;;;;13.68;9.65;;;16.10;68.90;17.90;101169.00;;;;5041843;28;20197;-77
2023/10/23 09:43:14;;;;;;;13.07;9.32;;;16.10;68.90;17.90;101166.00;;;;5037227;28;20215;-77
2023/10/23 09:45:42;;;;;;;12.15;8.88;;;16.10;68.80;17.90;101166.00;;;;5040993;28;20273;-77
2023/10/23 09:48:11;;;;;;;13.73;9.05;;;16.10;68.80;17.90;101162.00;;;;5048587;28;20620;-77
2023/10/23 09:50:43;;;;;;;11.60;8.70;;;16.20;68.90;17.90;101159.00;;;;5041471;28;20197;-77
2023/10/23 09:53:13;;;;;;;12.50;8.13;;;16.20;68.80;18.00;101161.00;;;;5041060;28;20192;-77
2023/10/23 09:55:42;;;;;;;13.40;8.80;;;16.20;68.80;18.00;101156.00;;;;5038147;28;20209;-77
2023/10/23 09:58:19;;;;;;;14.73;8.73;;;16.20;68.80;18.00;101156.00;;;;5039143;28;20614;-77
2023/10/23 10:00:47;;;;;;;15.00;8.60;;;16.20;68.80;18.10;101165.00;;;;5029048;28;20700;-77
2023/10/23 10:03:18;;;;;;;14.05;9.38;;;16.20;68.70;18.00;101158.00;;;;5028292;28;20712;-77
2023/10/23 10:05:52;;;;;;;15.23;9.63;;;16.30;68.70;18.10;101158.00;;;;5031932;28;20200;-77
2023/10/23 10:08:21;;;;;;;12.13;8.23;;;16.30;68.70;18.10;101157.00;;;;5029005;28;20585;-77
2023/10/23 10:10:50;;;;;;;11.55;7.30;;;16.30;68.70;18.10;101161.00;;;;5040995;28;20199;-77
2023/10/23 10:13:20;;;;;;;10.38;7.50;;;16.30;68.70;18.10;101157.00;;;;5038480;28;20588;-77
2023/10/23 10:15:50;;;;;;;13.80;7.95;;;16.30;68.70;18.10;101153.00;;;;5044416;28;20884;-77
2023/10/23 10:18:17;;;;;;;11.68;7.80;;;16.30;68.70;18.20;101157.00;;;;5029179;28;20228;-77
2023/10/23 10:20:48;;;;;;;10.63;7.47;;;16.40;68.60;18.20;101161.00;;;;5037922;28;20212;-77
2023/10/23 10:23:18;;;;;;;12.93;8.48;;;16.40;68.60;18.20;101153.00;;;;5028288;28;20219;-77
2023/10/23 10:25:47;;;;;;;10.65;6.88;;;16.40;68.50;18.20;101157.00;;;;5035697;28;20193;-77
2023/10/23 10:28:14;;;;;;;10.07;7.57;;;16.40;68.40;18.20;101156.00;;;;5036839;28;20204;-77
2023/10/23 10:30:46;;;;;;;10.75;7.57;;;16.40;68.30;18.20;101161.00;;;;5037547;28;20247;-77
2023/10/23 10:33:21;;;;;;;8.00;6.72;;;16.40;68.10;18.20;101150.00;;;;5035350;28;20206;-77
2023/10/23 10:35:52;;;;;;;9.27;6.90;;;16.40;68.10;18.20;101143.00;;;;5038825;28;20202;-77
2023/10/23 10:38:24;;;;;;;8.02;6.55;;;16.40;68.10;18.20;101140.00;;;;5035200;28;20211;-77
2023/10/23 10:40:58;;;;;;;8.75;7.13;;;16.40;68.80;18.20;101131.00;;;;5045194;28;20632;-77
2023/10/23 10:43:33;;;;;;;9.13;6.38;;;16.40;68.10;18.20;101129.00;;;;5036852;28;20595;-77
2023/10/23 10:46:04;;;;;;;8.07;5.63;;;16.40;68.00;18.20;101132.00;;;;5038907;28;20265;-77
2023/10/23 10:48:47;;;;;;;9.45;6.28;;;16.40;67.90;18.10;101131.00;;;;5036065;28;20196;-77